Time;durP1;ratioP1;P1;durP2;ratioP2;P2;SDS_P1;SDS_P2;PMS_P1;PMS_P2;Temp;Humidity;BMP_temperature;BMP_pressure;BME280_temperature;BME280_humidity;BME280_pressure;Samples;Min_cycle;Max_cycle;Signal;HPM_P1;HPM_P2
2022/12/31 00:00:58;;;;;;;3.38;0.80;;;;;;;10.44;100.00;98759.94;5097210;28;20131;-78
2022/12/31 00:03:26;;;;;;;1.60;0.80;;;;;;;10.43;100.00;98746.56;5098806;28;20044;-78
2022/12/31 00:05:53;;;;;;;0.90;0.70;;;;;;;10.56;100.00;98749.41;5099566;28;20050;-78
2022/12/31 00:08:20;;;;;;;0.75;0.73;;;;;;;10.63;100.00;98772.06;5107491;28;20054;-78
2022/12/31 00:10:46;;;;;;;1.08;0.77;;;;;;;10.73;100.00;98770.88;5107844;28;20055;-79
2022/12/31 00:13:14;;;;;;;1.38;0.70;;;;;;;10.67;100.00;98766.22;5101781;28;20126;-78
2022/12/31 00:15:42;;;;;;;1.55;0.82;;;;;;;10.70;100.00;98774.81;5105807;28;20048;-79
2022/12/31 00:18:09;;;;;;;3.35;0.90;;;;;;;10.54;100.00;98761.53;5103299;28;20051;-78
2022/12/31 00:20:40;;;;;;;2.10;0.77;;;;;;;10.52;100.00;98769.00;5106508;28;20040;-78
2022/12/31 00:23:07;;;;;;;0.70;0.55;;;;;;;10.60;100.00;98782.50;5108280;28;20100;-78
2022/12/31 00:25:35;;;;;;;3.38;1.00;;;;;;;10.55;100.00;98772.22;5105160;28;20086;-78
2022/12/31 00:28:01;;;;;;;0.85;0.70;;;;;;;10.59;100.00;98762.59;5110042;28;20052;-78
2022/12/31 00:30:28;;;;;;;2.22;0.80;;;;;;;10.71;100.00;98781.13;5103006;28;20455;-79
2022/12/31 00:32:54;;;;;;;1.20;0.60;;;;;;;10.65;100.00;98780.03;5105287;28;20044;-78
2022/12/31 00:35:21;;;;;;;1.27;0.50;;;;;;;10.69;100.00;98780.47;5101228;28;20058;-78
2022/12/31 00:37:51;;;;;;;1.30;0.70;;;;;;;10.65;100.00;98774.59;5098199;28;20062;-78
2022/12/31 00:40:17;;;;;;;;;;;;;;;10.74;100.00;98789.72;5110319;28;20044;-78
2022/12/31 00:42:47;;;;;;;6.32;0.85;;;;;;;10.73;100.00;98788.03;5111640;28;20382;-78
2022/12/31 00:45:14;;;;;;;0.57;0.52;;;;;;;10.70;100.00;98777.53;5102680;28;20086;-78
2022/12/31 00:47:40;;;;;;;0.60;0.52;;;;;;;10.76;100.00;98790.38;5112163;28;20047;-78
2022/12/31 00:50:07;;;;;;;0.40;0.40;;;;;;;10.93;100.00;98790.94;5105942;28;20365;-78
2022/12/31 00:52:34;;;;;;;0.50;0.50;;;;;;;10.78;100.00;98763.00;5112589;28;20070;-77
2022/12/31 00:55:02;;;;;;;2.60;0.50;;;;;;;10.90;100.00;98790.47;5111132;28;20047;-79
2022/12/31 00:57:28;;;;;;;0.77;0.60;;;;;;;10.90;100.00;98795.91;5113276;28;20054;-78
2022/12/31 00:59:55;;;;;;;2.10;0.70;;;;;;;10.99;100.00;98800.19;5095306;28;20078;-78
2022/12/31 01:02:21;;;;;;;0.52;0.52;;;;;;;11.05;100.00;98804.00;5102841;28;20051;-79
2022/12/31 01:04:48;;;;;;;1.02;0.60;;;;;;;11.09;100.00;98816.16;5099387;28;20059;-79
2022/12/31 01:07:14;;;;;;;1.73;0.82;;;;;;;11.04;100.00;98818.66;5107008;28;20491;-79
2022/12/31 01:09:41;;;;;;;2.10;0.90;;;;;;;11.21;100.00;98825.47;5111966;28;20055;-79
2022/12/31 01:12:09;;;;;;;1.45;1.00;;;;;;;11.24;100.00;98825.06;5112299;28;20047;-79
2022/12/31 01:14:35;;;;;;;1.70;0.60;;;;;;;11.37;100.00;98834.41;5096650;28;20052;-79
2022/12/31 01:17:02;;;;;;;0.93;0.63;;;;;;;11.37;100.00;98834.41;5106222;28;20050;-79
2022/12/31 01:19:29;;;;;;;2.60;0.70;;;;;;;11.33;100.00;98837.50;5108727;28;20041;-79
2022/12/31 01:21:56;;;;;;;1.08;0.60;;;;;;;11.28;100.00;98820.09;5112244;28;20067;-79
2022/12/31 01:24:23;;;;;;;1.85;0.60;;;;;;;11.36;100.00;98841.69;5111549;28;20062;-79
2022/12/31 01:26:50;;;;;;;1.00;0.57;;;;;;;11.33;100.00;98840.22;5111259;28;20479;-80
2022/12/31 01:29:18;;;;;;;0.80;0.60;;;;;;;11.23;100.00;98830.72;5109785;28;20081;-79
2022/12/31 01:31:45;;;;;;;1.15;0.60;;;;;;;11.26;100.00;98847.50;5111121;28;20482;-79
2022/12/31 01:34:11;;;;;;;0.68;0.60;;;;;;;11.31;100.00;98841.47;5106765;28;20052;-79
2022/12/31 01:36:38;;;;;;;2.63;0.35;;;;;;;11.32;100.00;98834.97;5101271;28;20047;-80
2022/12/31 01:39:07;;;;;;;0.73;0.28;;;;;;;11.61;100.00;98866.59;5105823;28;20044;-79
2022/12/31 01:41:35;;;;;;;0.57;0.40;;;;;;;11.71;100.00;98862.69;5112523;28;20056;-79
2022/12/31 01:44:23;;;;;;;3.17;0.70;;;;;;;11.72;100.00;98865.19;5102721;28;20050;-79
2022/12/31 01:46:53;;;;;;;2.67;0.60;;;;;;;11.89;100.00;98864.88;5108687;28;20066;-81
2022/12/31 01:49:23;;;;;;;1.25;0.52;;;;;;;11.85;100.00;98845.38;5105190;28;20044;-78
2022/12/31 01:51:54;;;;;;;2.83;0.65;;;;;;;11.88;100.00;98866.78;5110632;28;20061;-78
2022/12/31 01:54:23;;;;;;;1.02;0.60;;;;;;;11.57;100.00;98838.09;5110780;28;20761;-79
2022/12/31 01:56:52;;;;;;;2.90;0.60;;;;;;;11.60;100.00;98872.25;5111869;28;20055;-78
2022/12/31 01:59:22;;;;;;;1.08;0.40;;;;;;;11.77;100.00;98873.63;5106743;28;20479;-78
2022/12/31 02:01:52;;;;;;;1.90;0.60;;;;;;;11.77;100.00;98865.47;5108910;28;20036;-78
2022/12/31 02:04:23;;;;;;;0.32;0.28;;;;;;;11.71;100.00;98865.41;5108388;28;20047;-79
2022/12/31 02:06:53;;;;;;;3.42;0.68;;;;;;;11.68;100.00;98853.00;5111684;28;20162;-79
2022/12/31 02:09:20;;;;;;;;;;;;;;;11.89;100.00;98876.59;5110838;28;20047;-79
2022/12/31 02:11:46;;;;;;;0.98;0.65;;;;;;;11.66;100.00;98861.38;5111684;28;19919;-79
2022/12/31 02:14:16;;;;;;;0.65;0.57;;;;;;;11.73;100.00;98866.88;5109056;28;20541;-79
2022/12/31 02:16:48;;;;;;;;;;;;;;;11.78;100.00;98877.19;5103564;28;20386;-79
2022/12/31 02:19:54;;;;;;;0.50;0.30;;;;;;;11.72;100.00;98880.72;5101518;28;20198;-78
2022/12/31 02:22:36;;;;;;;0.80;0.55;;;;;;;11.51;100.00;98866.09;5105636;28;20077;-78
2022/12/31 02:25:21;;;;;;;0.25;0.25;;;;;;;11.51;100.00;98868.81;5100254;28;20043;-78
2022/12/31 02:28:00;;;;;;;0.90;0.60;;;;;;;11.50;100.00;98859.81;5103859;28;20506;-79
2022/12/31 02:30:32;;;;;;;0.70;0.43;;;;;;;11.41;100.00;98863.75;5111470;28;20050;-78
2022/12/31 02:33:14;;;;;;;0.55;0.50;;;;;;;11.47;100.00;98864.81;5105222;28;20043;-78
2022/12/31 02:35:48;;;;;;;1.63;0.50;;;;;;;11.50;100.00;98892.50;5103863;28;20063;-78
2022/12/31 02:38:19;;;;;;;2.83;0.43;;;;;;;11.40;100.00;98880.28;5111160;28;20051;-78
2022/12/31 02:40:47;;;;;;;1.13;0.52;;;;;;;11.48;100.00;98875.50;5110104;28;20047;-78
2022/12/31 02:43:13;;;;;;;0.40;0.40;;;;;;;11.59;100.00;98870.56;5110438;28;20051;-79
2022/12/31 02:45:45;;;;;;;1.63;0.57;;;;;;;11.59;100.00;98881.44;5109284;28;20036;-78
2022/12/31 02:48:29;;;;;;;1.60;0.60;;;;;;;11.70;100.00;98878.19;5109270;28;20047;-78
2022/12/31 02:51:07;;;;;;;1.08;0.50;;;;;;;11.66;100.00;98877.72;5107802;28;20129;-78
2022/12/31 02:53:56;;;;;;;0.52;0.40;;;;;;;11.57;100.00;98856.31;5101750;28;20048;-78
2022/12/31 02:56:27;;;;;;;1.10;0.37;;;;;;;11.46;100.00;98853.09;5106134;28;20051;-78
2022/12/31 03:04:40;;;;;;;1.45;0.55;;;;;;;11.43;100.00;98871.72;5109726;28;20157;-79
2022/12/31 03:07:09;;;;;;;2.67;0.40;;;;;;;11.41;100.00;98869.19;5110068;28;20059;-78
2022/12/31 03:09:36;;;;;;;1.75;0.45;;;;;;;11.45;100.00;98875.91;5105581;28;20051;-78
2022/12/31 03:14:50;;;;;;;3.30;0.82;;;;;;;11.42;100.00;98873.56;5109709;28;20058;-78
2022/12/31 03:17:18;;;;;;;0.82;0.40;;;;;;;11.45;100.00;98880.50;5103652;28;20050;-78
2022/12/31 03:22:29;;;;;;;1.67;0.80;;;;;;;11.28;100.00;98882.69;5106914;28;20054;-78
2022/12/31 03:27:42;;;;;;;0.50;0.40;;;;;;;11.30;100.00;98883.31;5108573;28;20090;-78
2022/12/31 03:30:09;;;;;;;2.92;0.65;;;;;;;11.32;100.00;98887.53;5105194;28;20040;-78
2022/12/31 03:32:37;;;;;;;1.35;0.52;;;;;;;11.37;100.00;98876.06;5099242;28;20047;-79
2022/12/31 03:35:04;;;;;;;0.55;0.52;;;;;;;11.38;100.00;98864.13;5110829;28;20052;-79
2022/12/31 03:37:31;;;;;;;2.55;0.60;;;;;;;11.55;100.00;98871.97;5106502;28;20059;-79
2022/12/31 03:39:57;;;;;;;0.40;0.40;;;;;;;11.66;100.00;98887.78;5110648;28;20201;-79
2022/12/31 03:42:24;;;;;;;0.55;0.43;;;;;;;11.75;100.00;98897.47;5104799;28;20059;-78
2022/12/31 03:44:50;;;;;;;1.50;0.70;;;;;;;11.65;100.00;98891.53;5107630;28;20525;-79
2022/12/31 03:47:20;;;;;;;1.73;0.63;;;;;;;11.71;100.00;98898.06;5108046;28;20505;-78
2022/12/31 03:49:47;;;;;;;3.85;0.50;;;;;;;12.01;100.00;98899.56;5108919;28;20044;-79
2022/12/31 03:52:14;;;;;;;0.80;0.50;;;;;;;12.08;100.00;98896.88;5108232;28;20062;-78
2022/12/31 03:54:40;;;;;;;2.30;0.60;;;;;;;11.98;100.00;98889.09;5109253;28;20044;-79
2022/12/31 03:57:07;;;;;;;3.55;0.55;;;;;;;12.16;100.00;98906.75;5105772;28;20043;-80
2022/12/31 03:59:33;;;;;;;1.52;0.70;;;;;;;12.12;100.00;98903.63;5102900;28;20056;-79
2022/12/31 04:02:00;;;;;;;0.40;0.40;;;;;;;12.27;100.00;98894.44;5114049;28;20051;-79
2022/12/31 04:04:27;;;;;;;1.30;0.75;;;;;;;12.35;100.00;98895.13;5112814;28;20047;-79
2022/12/31 04:06:55;;;;;;;1.80;0.70;;;;;;;12.48;100.00;98907.13;5114258;28;20070;-80
2022/12/31 04:09:21;;;;;;;1.42;0.50;;;;;;;12.47;100.00;98910.91;5104521;28;20055;-79
2022/12/31 04:11:48;;;;;;;0.40;0.30;;;;;;;12.52;100.00;98902.94;5113526;28;20058;-79
2022/12/31 04:14:16;;;;;;;0.80;0.60;;;;;;;12.56;100.00;98890.59;5102469;28;20066;-80
2022/12/31 04:16:42;;;;;;;1.58;0.50;;;;;;;12.68;100.00;98909.94;5113537;28;20051;-79
2022/12/31 04:19:09;;;;;;;0.40;0.40;;;;;;;12.69;100.00;98908.88;5104443;28;20062;-79
2022/12/31 04:21:35;;;;;;;0.73;0.55;;;;;;;12.79;100.00;98908.50;5114033;28;20063;-79
2022/12/31 04:24:04;;;;;;;1.55;0.52;;;;;;;12.72;100.00;98892.09;5109541;28;20044;-79
2022/12/31 04:26:30;;;;;;;0.30;0.30;;;;;;;12.63;100.00;98886.00;5110359;28;20059;-79
2022/12/31 04:28:57;;;;;;;0.40;0.40;;;;;;;12.78;100.00;98913.13;5106049;28;20062;-79
2022/12/31 04:31:23;;;;;;;0.40;0.40;;;;;;;12.70;100.00;98916.84;5109485;28;20058;-80
2022/12/31 04:33:50;;;;;;;0.63;0.45;;;;;;;12.67;100.00;98908.25;5100367;28;20047;-79
2022/12/31 04:36:17;;;;;;;1.75;0.60;;;;;;;12.72;100.00;98917.50;5113609;28;20047;-79
2022/12/31 04:38:43;;;;;;;2.95;0.60;;;;;;;12.65;100.00;98905.72;5112786;28;20541;-79
2022/12/31 04:41:17;;;;;;;0.75;0.50;;;;;;;12.67;100.00;98900.06;5112693;28;20126;-80
2022/12/31 04:43:46;;;;;;;0.57;0.45;;;;;;;12.81;100.00;98928.22;5103469;28;20098;-80
2022/12/31 04:46:14;;;;;;;0.47;0.47;;;;;;;12.77;100.00;98919.59;5113359;28;20080;-79
2022/12/31 04:48:40;;;;;;;0.95;0.47;;;;;;;12.83;100.00;98926.13;5107443;28;20051;-79
2022/12/31 04:51:07;;;;;;;0.50;0.50;;;;;;;12.73;100.00;98908.25;5112483;28;20067;-79
2022/12/31 04:53:33;;;;;;;0.70;0.50;;;;;;;12.88;100.00;98927.19;5111258;28;20063;-79
2022/12/31 04:56:00;;;;;;;1.08;0.60;;;;;;;12.93;100.00;98932.03;5110660;28;20050;-79
2022/12/31 04:58:28;;;;;;;1.20;0.57;;;;;;;12.98;100.00;98945.91;5108590;28;20074;-79
2022/12/31 05:00:55;;;;;;;1.13;0.40;;;;;;;12.86;100.00;98923.00;5110747;28;20046;-80
2022/12/31 05:03:24;;;;;;;3.13;0.50;;;;;;;12.99;100.00;98924.91;5110453;28;20479;-79
2022/12/31 05:05:51;;;;;;;1.60;0.57;;;;;;;13.12;100.00;98935.84;5110479;28;20043;-80
2022/12/31 05:08:18;;;;;;;0.32;0.30;;;;;;;13.01;100.00;98912.75;5113167;28;20275;-80
2022/12/31 05:10:47;;;;;;;2.75;0.57;;;;;;;13.13;100.00;98942.13;5105950;28;20376;-79
2022/12/31 05:13:14;;;;;;;0.52;0.40;;;;;;;13.19;100.00;98950.34;5107380;28;20506;-79
2022/12/31 05:15:42;;;;;;;0.80;0.45;;;;;;;13.25;100.00;98929.59;5111210;28;20402;-80
2022/12/31 05:18:09;;;;;;;1.38;0.65;;;;;;;13.21;100.00;98931.88;5108893;28;20039;-80
2022/12/31 05:20:36;;;;;;;0.70;0.68;;;;;;;13.15;100.00;98931.88;5110551;28;20040;-80
2022/12/31 05:23:02;;;;;;;0.60;0.60;;;;;;;13.25;100.00;98945.97;5105248;28;20047;-80
2022/12/31 05:25:29;;;;;;;0.60;0.60;;;;;;;13.15;100.00;98940.91;5112723;28;20499;-80
2022/12/31 05:27:55;;;;;;;1.27;0.30;;;;;;;13.10;100.00;98944.25;5109022;28;20051;-80
2022/12/31 05:30:22;;;;;;;1.85;0.60;;;;;;;13.04;100.00;98938.78;5107094;28;20047;-79
2022/12/31 05:32:50;;;;;;;0.40;0.40;;;;;;;13.09;100.00;98963.56;5104698;28;20062;-79
2022/12/31 05:35:17;;;;;;;1.75;0.40;;;;;;;13.21;100.00;98969.25;5112400;28;20047;-79
2022/12/31 05:37:44;;;;;;;0.52;0.45;;;;;;;13.22;100.00;98946.38;5103899;28;20048;-80
2022/12/31 05:40:12;;;;;;;0.43;0.40;;;;;;;13.24;100.00;98947.84;5112039;28;20055;-79
2022/12/31 05:42:38;;;;;;;0.57;0.40;;;;;;;13.17;100.00;98944.28;5102556;28;20124;-79
2022/12/31 05:45:06;;;;;;;1.08;0.60;;;;;;;13.26;100.00;98948.50;5110825;28;20506;-79
2022/12/31 05:47:33;;;;;;;2.70;0.43;;;;;;;13.22;100.00;98940.94;5112218;28;20091;-79
2022/12/31 05:50:01;;;;;;;0.50;0.40;;;;;;;13.22;100.00;98947.22;5108651;28;20066;-79
2022/12/31 05:52:27;;;;;;;0.20;0.20;;;;;;;13.31;100.00;98953.31;5106271;28;20043;-79
2022/12/31 05:54:54;;;;;;;0.95;0.55;;;;;;;13.13;100.00;98951.19;5101082;28;20054;-79
2022/12/31 05:57:20;;;;;;;0.77;0.40;;;;;;;13.15;100.00;98960.00;5106912;28;20054;-79
2022/12/31 05:59:47;;;;;;;2.90;0.63;;;;;;;13.19;100.00;98947.63;5108290;28;20055;-80
2022/12/31 06:02:13;;;;;;;1.88;0.50;;;;;;;13.32;100.00;98976.81;5107476;28;20051;-79
2022/12/31 06:04:40;;;;;;;0.93;0.40;;;;;;;13.28;100.00;98970.13;5112072;28;20057;-79
2022/12/31 06:07:08;;;;;;;7.82;0.47;;;;;;;13.24;100.00;98969.66;5107361;28;20407;-79
2022/12/31 06:09:34;;;;;;;0.50;0.40;;;;;;;13.11;100.00;98964.19;5108153;28;20047;-79
2022/12/31 06:12:01;;;;;;;0.47;0.40;;;;;;;13.13;100.00;98975.75;5101175;28;20040;-79
2022/12/31 06:14:27;;;;;;;0.30;0.30;;;;;;;13.22;100.00;98970.94;5110474;28;20047;-79
2022/12/31 06:16:54;;;;;;;0.50;0.30;;;;;;;13.32;100.00;98985.00;5111639;28;20043;-80
2022/12/31 06:19:21;;;;;;;0.88;0.55;;;;;;;13.35;100.00;98994.72;5105084;28;20044;-79
2022/12/31 06:21:47;;;;;;;0.30;0.30;;;;;;;13.32;100.00;98974.09;5108750;28;20046;-80
2022/12/31 06:24:15;;;;;;;0.30;0.30;;;;;;;13.42;100.00;98968.28;5108693;28;20051;-80
2022/12/31 06:26:41;;;;;;;1.13;0.55;;;;;;;13.66;100.00;98996.88;5109162;28;20525;-80
2022/12/31 06:29:09;;;;;;;0.85;0.50;;;;;;;13.59;100.00;99004.22;5110368;28;20051;-79
2022/12/31 06:31:36;;;;;;;1.08;0.60;;;;;;;13.60;100.00;99006.72;5110300;28;20044;-80
2022/12/31 06:34:02;;;;;;;1.45;0.50;;;;;;;13.63;100.00;99013.69;5110829;28;20487;-79
2022/12/31 06:36:29;;;;;;;0.95;0.68;;;;;;;13.61;100.00;99007.59;5110377;28;20051;-82
2022/12/31 06:38:56;;;;;;;1.30;0.40;;;;;;;13.72;100.00;99017.06;5100618;28;20052;-80
2022/12/31 06:41:23;;;;;;;1.92;0.50;;;;;;;13.71;100.00;99021.66;5110027;28;20059;-80
2022/12/31 06:43:50;;;;;;;0.82;0.50;;;;;;;13.69;100.00;99021.03;5110463;28;20054;-80
2022/12/31 06:46:18;;;;;;;1.90;0.50;;;;;;;13.57;100.00;99017.25;5107101;28;20391;-80
2022/12/31 06:48:45;;;;;;;0.50;0.43;;;;;;;13.43;100.00;98992.63;5109327;28;20092;-80
2022/12/31 06:51:14;;;;;;;2.15;0.68;;;;;;;13.33;100.00;99002.25;5110307;28;20047;-81
2022/12/31 06:53:40;;;;;;;1.15;0.70;;;;;;;13.33;100.00;99005.81;5105317;28;20429;-81
2022/12/31 06:56:09;;;;;;;0.40;0.40;;;;;;;13.20;100.00;98998.44;5104071;28;20043;-81
2022/12/31 06:58:38;;;;;;;0.22;0.22;;;;;;;13.18;100.00;99021.53;5107733;28;20502;-81
2022/12/31 07:01:21;;;;;;;0.68;0.45;;;;;;;13.08;100.00;99006.41;5106727;28;20479;-81
2022/12/31 07:03:58;;;;;;;0.65;0.40;;;;;;;13.03;100.00;99025.25;5100991;28;20043;-81
2022/12/31 07:06:33;;;;;;;2.20;0.68;;;;;;;12.92;100.00;99014.94;5104805;28;20047;-81
2022/12/31 07:09:07;;;;;;;7.88;0.60;;;;;;;12.83;100.00;99014.28;5100703;28;20044;-81
2022/12/31 07:11:43;;;;;;;0.50;0.47;;;;;;;12.74;100.00;99020.94;5108715;28;20055;-81
2022/12/31 07:14:23;;;;;;;0.43;0.40;;;;;;;12.65;100.00;99012.09;5110247;28;20054;-81
2022/12/31 07:17:03;;;;;;;1.75;0.82;;;;;;;12.69;100.00;99029.75;5107038;28;20051;-81
2022/12/31 07:19:40;;;;;;;0.93;0.40;;;;;;;12.62;100.00;99017.94;5109241;28;20053;-81
2022/12/31 07:22:13;;;;;;;2.72;0.40;;;;;;;12.55;100.00;99015.16;5096981;28;20051;-81
2022/12/31 07:24:41;;;;;;;0.40;0.40;;;;;;;12.64;100.00;99039.56;5100883;28;20056;-81
2022/12/31 07:27:22;;;;;;;6.00;0.80;;;;;;;12.68;100.00;99024.47;5111149;28;20043;-81
2022/12/31 07:30:03;;;;;;;1.88;0.63;;;;;;;12.69;100.00;99040.66;5108515;28;20055;-81
2022/12/31 07:32:41;;;;;;;0.50;0.30;;;;;;;12.51;100.00;99022.09;5109332;28;20126;-80
2022/12/31 07:35:16;;;;;;;0.68;0.50;;;;;;;12.52;100.00;99015.56;5109643;28;20052;-81
2022/12/31 07:37:51;;;;;;;0.50;0.30;;;;;;;12.59;100.00;99026.53;5112335;28;20052;-80
2022/12/31 07:40:26;;;;;;;0.55;0.45;;;;;;;12.60;100.00;99030.09;5108749;28;20059;-80
2022/12/31 07:43:05;;;;;;;0.40;0.40;;;;;;;12.65;100.00;99033.91;5110544;28;20071;-80
2022/12/31 07:45:46;;;;;;;1.55;0.63;;;;;;;12.72;100.00;99050.28;5112062;28;20043;-81
2022/12/31 07:48:22;;;;;;;1.85;0.75;;;;;;;12.62;100.00;99028.03;5095736;28;20051;-81
2022/12/31 07:50:54;;;;;;;0.60;0.30;;;;;;;12.83;100.00;99043.44;5110001;28;20043;-81
2022/12/31 07:53:22;;;;;;;1.58;0.50;;;;;;;12.72;100.00;99020.28;5105703;28;20051;-81
2022/12/31 07:55:55;;;;;;;1.35;0.60;;;;;;;12.65;100.00;99023.00;5112524;28;20514;-81
2022/12/31 07:58:31;;;;;;;1.40;0.52;;;;;;;12.66;100.00;99035.59;5105284;28;20058;-80
2022/12/31 08:01:03;;;;;;;0.82;0.43;;;;;;;12.76;100.00;99054.31;5103074;28;20071;-81
2022/12/31 08:03:46;;;;;;;1.98;0.52;;;;;;;12.68;100.00;99043.56;5115389;28;20050;-81
2022/12/31 08:06:24;;;;;;;2.90;0.50;;;;;;;12.75;100.00;99067.13;5114661;28;20044;-80
2022/12/31 08:09:01;;;;;;;1.60;0.60;;;;;;;12.76;100.00;99073.41;5114545;28;20058;-81
2022/12/31 08:11:34;;;;;;;0.47;0.38;;;;;;;12.85;100.00;99088.56;5106240;28;20040;-81
2022/12/31 08:14:01;;;;;;;0.85;0.63;;;;;;;12.88;100.00;99068.22;5105560;28;20082;-81
2022/12/31 08:16:30;;;;;;;0.52;0.40;;;;;;;13.03;100.00;99084.47;5113254;28;20475;-81
2022/12/31 08:18:57;;;;;;;0.43;0.43;;;;;;;13.09;100.00;99075.44;5107431;28;20050;-81
2022/12/31 08:21:39;;;;;;;0.80;0.70;;;;;;;13.18;100.00;99081.59;5114014;28;20134;-80
2022/12/31 08:24:15;;;;;;;1.10;0.52;;;;;;;13.10;100.00;99060.78;5113302;28;20080;-81
2022/12/31 08:26:50;;;;;;;0.50;0.50;;;;;;;13.34;100.00;99086.72;5108538;28;20495;-81
2022/12/31 08:29:32;;;;;;;0.38;0.38;;;;;;;13.33;100.00;99065.06;5113865;28;20055;-81
2022/12/31 08:32:08;;;;;;;0.98;0.80;;;;;;;13.42;100.00;99074.75;5113799;28;20127;-81
2022/12/31 08:34:46;;;;;;;1.15;0.60;;;;;;;13.42;100.00;99066.56;5113994;28;20058;-81
2022/12/31 08:37:16;;;;;;;2.60;0.82;;;;;;;13.59;100.00;99094.34;5107042;28;20050;-81
2022/12/31 08:39:54;;;;;;;0.95;0.68;;;;;;;13.52;100.00;99058.84;5112146;28;20050;-81
2022/12/31 08:42:28;;;;;;;1.83;0.82;;;;;;;13.71;100.00;99089.13;5110609;28;20059;-81
2022/12/31 08:45:08;;;;;;;0.40;0.40;;;;;;;13.75;100.00;99096.69;5114234;28;20048;-81
2022/12/31 08:47:47;;;;;;;1.05;0.70;;;;;;;13.87;99.33;99093.38;5114721;28;20047;-81
2022/12/31 08:50:16;;;;;;;0.60;0.50;;;;;;;13.96;99.16;99101.13;5113634;28;20051;-81
2022/12/31 08:52:43;;;;;;;2.20;0.65;;;;;;;13.98;99.52;99100.94;5107835;28;20157;-81
2022/12/31 08:55:14;;;;;;;1.95;1.00;;;;;;;14.01;98.73;99127.00;5110361;28;20113;-81
2022/12/31 08:57:46;;;;;;;3.10;1.10;;;;;;;13.97;96.51;99101.97;5113313;28;20048;-82
2022/12/31 09:00:15;;;;;;;2.17;0.70;;;;;;;14.33;93.95;99136.28;5113226;28;20051;-82
2022/12/31 09:02:58;;;;;;;1.50;0.57;;;;;;;14.33;94.65;99122.59;5112546;28;20079;-81
2022/12/31 09:05:30;;;;;;;0.70;0.52;;;;;;;14.39;92.96;99138.19;5113634;28;20051;-82
2022/12/31 09:08:16;;;;;;;0.60;0.50;;;;;;;14.40;92.32;99126.19;5109523;28;20055;-81
2022/12/31 09:10:52;;;;;;;1.90;1.00;;;;;;;14.43;93.63;99139.44;5105425;28;20122;-81
2022/12/31 09:13:25;;;;;;;0.50;0.50;;;;;;;14.45;91.20;99115.47;5107451;28;20502;-81
2022/12/31 09:16:01;;;;;;;0.80;0.77;;;;;;;14.46;90.97;99116.28;5113088;28;20052;-82
2022/12/31 09:18:30;;;;;;;0.77;0.50;;;;;;;14.58;91.10;99124.72;5113165;28;20052;-82
2022/12/31 09:20:57;;;;;;;1.33;0.70;;;;;;;14.51;90.42;99100.94;5113106;28;20414;-82
2022/12/31 09:23:24;;;;;;;2.22;0.63;;;;;;;14.63;91.65;99135.88;5111019;28;20384;-81
2022/12/31 09:26:00;;;;;;;3.63;0.70;;;;;;;14.68;89.89;99147.88;5112772;28;20103;-81
2022/12/31 09:28:38;;;;;;;0.70;0.47;;;;;;;14.59;89.21;99108.09;5093253;28;20044;-82
2022/12/31 09:31:11;;;;;;;0.40;0.40;;;;;;;14.82;88.48;99136.91;5105505;28;20036;-82
2022/12/31 09:33:45;;;;;;;2.53;1.05;;;;;;;14.72;89.96;99134.59;5112019;28;20039;-82
2022/12/31 09:36:19;;;;;;;1.52;0.65;;;;;;;14.67;89.08;99113.34;5109976;28;20046;-81
2022/12/31 09:38:52;;;;;;;2.17;1.20;;;;;;;14.86;87.48;99132.69;5106007;28;20058;-82
2022/12/31 09:41:42;;;;;;;1.55;0.65;;;;;;;14.76;88.04;99119.44;5112863;28;20130;-82
2022/12/31 09:44:35;;;;;;;;;;;;;;;14.89;87.46;99136.88;5112317;28;20055;-83
2022/12/31 09:47:38;;;;;;;2.15;1.00;;;;;;;14.99;86.88;99142.75;5108677;28;19920;-82
2022/12/31 09:50:20;;;;;;;2.35;1.00;;;;;;;15.01;86.60;99146.16;5104990;28;20044;-82
2022/12/31 09:53:09;;;;;;;2.65;1.25;;;;;;;14.98;87.89;99128.25;5109818;28;20048;-81
2022/12/31 09:55:40;;;;;;;0.65;0.60;;;;;;;14.90;86.53;99103.00;5112981;28;20056;-82
2022/12/31 09:58:32;;;;;;;1.38;0.77;;;;;;;14.95;86.49;99106.78;5112536;28;20066;-81
2022/12/31 10:01:06;;;;;;;3.38;0.82;;;;;;;15.13;85.00;99121.66;5111004;28;20043;-82
2022/12/31 10:03:51;;;;;;;0.82;0.70;;;;;;;15.07;87.29;99120.66;5103223;28;20056;-81
2022/12/31 10:06:25;;;;;;;1.27;0.70;;;;;;;15.19;84.31;99118.06;5109190;28;20466;-82
2022/12/31 10:09:06;;;;;;;1.42;1.00;;;;;;;15.29;84.04;99110.22;5112237;28;20071;-82
2022/12/31 10:11:52;;;;;;;0.50;0.50;;;;;;;15.47;83.76;99131.44;5112524;28;20077;-82
2022/12/31 10:14:37;;;;;;;2.72;0.82;;;;;;;15.57;81.84;99128.25;5109137;28;20047;-82
2022/12/31 10:17:18;;;;;;;2.65;0.93;;;;;;;15.63;82.08;99135.59;5104373;28;20047;-82
2022/12/31 10:20:06;;;;;;;2.42;1.15;;;;;;;15.64;80.88;99125.44;5110714;28;20396;-82
2022/12/31 10:22:53;;;;;;;1.73;0.70;;;;;;;15.51;81.60;99112.69;5111496;28;20047;-82
2022/12/31 10:25:57;;;;;;;0.85;0.65;;;;;;;15.67;81.94;99122.28;5112210;28;20050;-82
2022/12/31 10:28:30;;;;;;;4.97;0.88;;;;;;;15.56;80.86;99110.94;5058421;28;20047;-81
2022/12/31 10:31:07;;;;;;;0.73;0.60;;;;;;;15.65;82.05;99116.19;5111672;28;20134;-82
2022/12/31 10:33:42;;;;;;;0.93;0.60;;;;;;;15.76;80.09;99131.91;5102078;28;20435;-82
2022/12/31 10:36:18;;;;;;;1.60;0.60;;;;;;;15.81;80.41;99134.06;5107402;28;20086;-81
2022/12/31 10:39:02;;;;;;;0.90;0.45;;;;;;;15.93;78.66;99130.38;5109825;28;20044;-82
2022/12/31 10:42:12;;;;;;;2.47;0.70;;;;;;;15.92;77.74;99098.53;5113415;28;20051;-82
2022/12/31 10:45:02;;;;;;;1.23;0.60;;;;;;;15.90;79.58;99103.41;5107520;28;20066;-81
2022/12/31 10:48:01;;;;;;;1.63;0.52;;;;;;;16.00;77.66;99108.38;5102820;28;20055;-81
2022/12/31 10:50:58;;;;;;;0.50;0.50;;;;;;;16.11;76.51;99117.81;5096130;28;20550;-81
2022/12/31 10:54:03;;;;;;;4.22;0.50;;;;;;;16.15;78.39;99115.47;5103013;28;20044;-81
2022/12/31 10:56:59;;;;;;;1.10;0.65;;;;;;;16.09;76.37;99087.03;5105097;28;20055;-81
2022/12/31 11:00:00;;;;;;;0.30;0.30;;;;;;;16.20;76.29;99094.53;5106576;28;20455;-81
2022/12/31 11:02:53;;;;;;;2.38;0.40;;;;;;;16.24;75.26;99095.78;5110579;28;20052;-82
2022/12/31 11:06:03;;;;;;;2.22;0.70;;;;;;;16.35;74.76;99099.69;5104442;28;20279;-82
2022/12/31 11:08:47;;;;;;;1.13;0.52;;;;;;;16.38;75.24;99102.00;5106703;28;20048;-82
2022/12/31 11:11:29;;;;;;;0.52;0.40;;;;;;;16.41;73.85;99095.19;5090665;28;20083;-82
2022/12/31 11:14:14;;;;;;;1.20;0.45;;;;;;;16.48;72.76;99092.41;5090491;28;20048;-82
2022/12/31 11:16:57;;;;;;;2.38;0.50;;;;;;;16.46;72.32;99078.91;5104398;28;20156;-81
2022/12/31 11:19:32;;;;;;;2.95;0.47;;;;;;;16.41;73.35;99084.22;5109175;28;20047;-82
2022/12/31 11:22:27;;;;;;;1.42;0.70;;;;;;;16.47;71.60;99086.09;5099882;28;20044;-82
2022/12/31 11:25:15;;;;;;;0.77;0.40;;;;;;;16.50;70.87;99060.09;5108860;28;20051;-82
2022/12/31 11:28:02;;;;;;;1.48;0.50;;;;;;;16.62;72.06;99085.75;5093262;28;20047;-82
2022/12/31 11:30:40;;;;;;;0.30;0.30;;;;;;;16.65;70.32;99068.81;5112870;28;20051;-81
2022/12/31 11:33:24;;;;;;;0.30;0.30;;;;;;;16.64;69.95;99070.69;5109043;28;20047;-81
2022/12/31 11:36:12;;;;;;;1.75;0.35;;;;;;;16.71;69.05;99076.13;5110730;28;20471;-81
2022/12/31 11:38:47;;;;;;;2.17;1.27;;;;;;;16.84;68.90;99083.38;5110078;28;20059;-80
2022/12/31 11:41:22;;;;;;;0.52;0.35;;;;;;;16.84;68.24;99074.31;5110869;28;20121;-81
2022/12/31 11:43:55;;;;;;;0.45;0.40;;;;;;;16.80;68.53;99066.53;5109158;28;20044;-81
2022/12/31 11:46:47;;;;;;;1.02;0.57;;;;;;;16.84;67.51;99050.44;5110872;28;20051;-81
2022/12/31 11:49:31;;;;;;;1.83;1.10;;;;;;;16.94;67.87;99072.75;5107776;28;20395;-81
2022/12/31 11:52:16;;;;;;;0.40;0.40;;;;;;;17.03;67.73;99080.69;5106496;28;20423;-80
2022/12/31 11:54:56;;;;;;;0.85;0.50;;;;;;;16.89;67.99;99052.53;5108422;28;20058;-81
2022/12/31 11:57:26;;;;;;;4.75;0.60;;;;;;;17.01;67.41;99067.16;5110866;28;20061;-82
2022/12/31 11:59:58;;;;;;;0.73;0.60;;;;;;;17.06;68.26;99074.75;5110891;28;20122;-81
2022/12/31 12:02:29;;;;;;;2.35;0.80;;;;;;;17.03;67.69;99065.03;5108765;28;20048;-81
2022/12/31 12:05:00;;;;;;;1.67;0.60;;;;;;;17.21;66.78;99069.69;5110436;28;20047;-81
2022/12/31 12:07:28;;;;;;;1.77;0.35;;;;;;;17.08;67.41;99051.44;5111075;28;20414;-81
2022/12/31 12:09:55;;;;;;;1.50;0.60;;;;;;;17.21;66.96;99064.19;5108797;28;20047;-79